»·PEaware :: N623CK KRKS-KLXV

N623CK :: KRKS-KLXV

FLIGHT INFORMATION

Flight Status: Arrived
Operator: Privately registered:
United States
More flights under this callsign
Pilot: Charles S. (11412)
Aircraft: MITSUBISHI MU-2 MARQUISE
(MU2)
More flights by this aircraft type
Origin: KRKS Rock Springs-Sweetwater
United States
Destination: KLXV Lake Co
United States
More flights between these airports :: More routes between these airports
Route: OCS J206 DBL
File this flight plan on PilotEdge
Remarks:
Altitude:
(Current/Filed)
23,000ft
Speed:
(Current/Filed)
270kts
Departed: 06-Feb-19 07:20 PM
Arrived: 06-Feb-19 08:15 PM
Distance/Time
Traveled:
190nm/0:55
Distance/Time
To Go:
Arrived

Flight Plot

Page will automatically refresh every two minutes.

Flight plan parsing failed; only flown route is shown


Map Options




Map Legend


Flown Route
Filed Route
Departure Airport
Arrival Airport
Navaid (VOR, NDB)
Fix

Horizontal Profiles

Position Reports

Time Latitude Longitude Heading Altitude Ground
Speed
06-Feb-19 19:08 41.598996 -109.063745 313 6738ft 0kts
06-Feb-19 19:09 41.598996 -109.063745 313 6738ft 0kts
06-Feb-19 19:10 41.598996 -109.063745 313 6738ft 0kts
06-Feb-19 19:11 41.598996 -109.063745 313 6738ft 0kts
06-Feb-19 19:12 41.598996 -109.063745 313 6738ft 0kts
06-Feb-19 19:13 41.598996 -109.063745 313 6738ft 0kts
06-Feb-19 19:14 41.599007 -109.063761 313 6738ft 1kts
06-Feb-19 19:15 41.597981 -109.066234 224 6740ft 16kts
06-Feb-19 19:16 41.596804 -109.070902 283 6736ft 17kts
06-Feb-19 19:17 41.597897 -109.077086 283 6729ft 17kts
06-Feb-19 19:18 41.598457 -109.081897 201 6722ft 0kts
06-Feb-19 19:19 41.595310 -109.068797 109 6746ft 141kts
06-Feb-19 19:20 41.580538 -109.007212 141 8016ft 192kts
06-Feb-19 19:21 41.537476 -108.961196 149 9801ft 204kts
06-Feb-19 19:22 41.491834 -108.914426 151 11571ft 207kts
06-Feb-19 19:23 41.446472 -108.868011 153 13330ft 203kts
06-Feb-19 19:24 41.402504 -108.823081 155 15084ft 194kts
06-Feb-19 19:25 41.361129 -108.780881 158 16823ft 180kts
06-Feb-19 19:26 41.320445 -108.739660 158 17812ft 196kts
06-Feb-19 19:27 41.274873 -108.693272 157 18529ft 213kts
06-Feb-19 19:28 41.226449 -108.644149 157 19233ft 221kts
06-Feb-19 19:29 41.177244 -108.594359 158 19924ft 223kts
06-Feb-19 19:30 41.127548 -108.544146 158 20613ft 223kts
06-Feb-19 19:31 41.078930 -108.495117 159 21292ft 220kts
06-Feb-19 19:32 41.030038 -108.445913 159 21980ft 216kts
06-Feb-19 19:33 40.982806 -108.398466 159 22655ft 209kts
06-Feb-19 19:34 40.934580 -108.350275 158 22777ft 226kts
06-Feb-19 19:35 40.885704 -108.301295 158 22795ft 235kts
06-Feb-19 19:37 40.832751 -108.248388 158 22804ft 242kts
06-Feb-19 19:38 40.778185 -108.193983 158 22805ft 246kts
06-Feb-19 19:39 40.723458 -108.139532 158 22806ft 248kts
06-Feb-19 19:40 40.668233 -108.084719 157 22806ft 248kts
06-Feb-19 19:41 40.613077 -108.030090 157 22805ft 249kts
06-Feb-19 19:42 40.557658 -107.975337 157 22807ft 249kts
06-Feb-19 19:43 40.502321 -107.920791 157 22808ft 249kts
06-Feb-19 19:44 40.446462 -107.865788 157 22807ft 249kts
06-Feb-19 19:45 40.390985 -107.811345 157 22805ft 249kts
06-Feb-19 19:46 40.335423 -107.756963 157 22802ft 249kts
06-Feb-19 19:47 40.279921 -107.702726 158 22803ft 249kts
06-Feb-19 19:48 40.224351 -107.648544 157 22804ft 249kts
06-Feb-19 19:49 40.168951 -107.594621 157 22804ft 249kts
06-Feb-19 19:50 40.113195 -107.540467 157 22804ft 249kts
06-Feb-19 19:51 40.057702 -107.486660 158 22808ft 249kts
06-Feb-19 19:52 40.002125 -107.432908 157 22813ft 249kts
06-Feb-19 19:53 39.946477 -107.379193 158 22823ft 248kts
06-Feb-19 19:54 39.891094 -107.325856 158 22840ft 247kts
06-Feb-19 19:55 39.835800 -107.272722 158 22858ft 248kts
06-Feb-19 19:55 39.789516 -107.228292 158 22859ft 248kts
06-Feb-19 19:57 39.725023 -107.164863 148 22800ft 264kts
06-Feb-19 19:58 39.679479 -107.088271 141 21816ft 268kts
06-Feb-19 19:58 39.643116 -107.026846 140 20994ft 270kts
06-Feb-19 19:59 39.617309 -106.930129 107 19976ft 304kts
06-Feb-19 20:00 39.603195 -106.823937 105 18977ft 309kts
06-Feb-19 20:02 39.587079 -106.705438 104 17683ft 283kts
06-Feb-19 20:02 39.575839 -106.623891 104 16461ft 272kts
06-Feb-19 20:03 39.563344 -106.533609 104 16198ft 254kts
06-Feb-19 20:04 39.550913 -106.444491 104 16196ft 244kts
06-Feb-19 20:05 39.528070 -106.363768 147 16080ft 241kts
06-Feb-19 20:06 39.462458 -106.337186 173 14874ft 257kts
06-Feb-19 20:07 39.394730 -106.338440 191 13207ft 228kts
06-Feb-19 20:08 39.341012 -106.340029 179 12544ft 169kts
06-Feb-19 20:09 39.302324 -106.332805 180 11664ft 132kts
06-Feb-19 20:10 39.265552 -106.326591 179 10862ft 133kts
06-Feb-19 20:11 39.230496 -106.333502 199 10558ft 126kts
06-Feb-19 20:12 39.194163 -106.333418 154 10441ft 138kts
06-Feb-19 20:13 39.208930 -106.314079 343 9971ft 118kts
06-Feb-19 20:14 39.222487 -106.316549 20 9931ft 15kts
06-Feb-19 20:15 39.223102 -106.316318 350 9934ft 0kts

Navigation Log

Ident Type
Flight plan parsing failed, navigation log unavailable